createdAt,value
2023-05-14T00:00:34.349Z,6.67
2023-05-14T00:03:01.369Z,5.73
2023-05-14T00:05:28.284Z,6.57
2023-05-14T00:07:55.119Z,6.33
2023-05-14T00:10:22.338Z,8.00
2023-05-14T00:12:49.393Z,7.33
2023-05-14T00:15:16.264Z,7.13
2023-05-14T00:17:43.460Z,7.13
2023-05-14T00:20:12.360Z,7.43
2023-05-14T00:22:40.363Z,8.23
2023-05-14T00:25:08.899Z,8.10
2023-05-14T00:27:37.977Z,12.23
2023-05-14T00:30:07.194Z,14.93
2023-05-14T00:32:34.221Z,15.87
2023-05-14T00:35:03.247Z,13.90
2023-05-14T00:37:30.476Z,14.70
2023-05-14T00:39:57.414Z,12.57
2023-05-14T00:42:24.331Z,13.30
2023-05-14T00:44:51.149Z,12.40
2023-05-14T00:47:18.133Z,9.93
2023-05-14T00:49:45.887Z,10.30
2023-05-14T00:52:13.281Z,8.73
2023-05-14T00:54:40.440Z,10.00
2023-05-14T00:57:07.568Z,8.83
2023-05-14T00:59:34.782Z,8.93
2023-05-14T01:02:02.219Z,8.10
2023-05-14T01:04:29.655Z,7.40
2023-05-14T01:06:59.392Z,9.57
2023-05-14T01:09:35.374Z,7.83
2023-05-14T01:12:02.282Z,7.80
2023-05-14T01:14:38.406Z,7.67
2023-05-14T01:17:06.601Z,8.40
2023-05-14T01:19:44.309Z,8.70
2023-05-14T01:22:12.373Z,9.00
2023-05-14T01:24:39.316Z,9.47
2023-05-14T01:27:27.914Z,11.27
2023-05-14T01:30:10.217Z,9.50
2023-05-14T01:32:39.144Z,8.97
2023-05-14T01:35:08.211Z,9.03
2023-05-14T01:37:36.802Z,9.17
2023-05-14T01:40:05.493Z,7.33
2023-05-14T01:42:33.010Z,9.00
2023-05-14T01:45:00.103Z,13.53
2023-05-14T01:47:27.112Z,6.90
2023-05-14T01:49:53.978Z,6.43
2023-05-14T01:52:21.573Z,8.83
2023-05-14T01:54:48.895Z,7.20
2023-05-14T01:57:15.885Z,7.93
2023-05-14T01:59:42.761Z,7.90
2023-05-14T02:02:09.585Z,8.67
2023-05-14T02:04:36.466Z,9.00
2023-05-14T02:07:03.863Z,8.10
2023-05-14T02:09:30.991Z,7.83
2023-05-14T02:11:58.397Z,7.90
2023-05-14T02:14:25.244Z,9.93
2023-05-14T02:16:52.165Z,8.20
2023-05-14T02:19:19.132Z,7.60
2023-05-14T02:21:46.144Z,8.13
2023-05-14T02:24:13.019Z,7.80
2023-05-14T02:26:39.923Z,8.90
2023-05-14T02:29:06.793Z,7.43
2023-05-14T02:31:33.936Z,7.07
2023-05-14T02:34:04.798Z,8.07
2023-05-14T02:36:32.096Z,10.03
2023-05-14T02:38:59.846Z,8.47
2023-05-14T02:41:27.059Z,7.80
2023-05-14T02:43:54.336Z,7.27
2023-05-14T02:46:21.429Z,7.57
2023-05-14T02:48:48.328Z,10.37
2023-05-14T02:51:15.161Z,8.70
2023-05-14T02:53:42.113Z,6.60
2023-05-14T02:56:09.259Z,7.90
2023-05-14T02:58:36.185Z,6.90
2023-05-14T03:01:03.220Z,7.00
2023-05-14T03:03:30.976Z,7.40
2023-05-14T03:05:58.257Z,7.10
2023-05-14T03:08:25.154Z,6.90
2023-05-14T03:10:52.028Z,8.20
2023-05-14T03:13:20.925Z,7.17
2023-05-14T03:15:48.774Z,7.37
2023-05-14T03:18:15.753Z,6.93
2023-05-14T03:20:42.617Z,6.80
2023-05-14T03:23:09.564Z,6.23
2023-05-14T03:25:36.593Z,6.63
2023-05-14T03:28:03.748Z,6.10
2023-05-14T03:30:31.155Z,7.80
2023-05-14T03:32:58.216Z,7.30
2023-05-14T03:35:25.100Z,7.10
2023-05-14T03:37:53.243Z,9.53
2023-05-14T03:40:20.150Z,8.17
2023-05-14T03:42:46.949Z,7.57
2023-05-14T03:45:15.829Z,7.10
2023-05-14T03:47:42.789Z,7.77
2023-05-14T03:50:09.840Z,8.57
2023-05-14T03:52:36.759Z,8.93
2023-05-14T03:55:04.047Z,8.60
2023-05-14T03:57:30.943Z,9.13
2023-05-14T03:59:57.821Z,8.50
2023-05-14T04:02:24.731Z,9.07
2023-05-14T04:04:51.726Z,10.57
2023-05-14T04:07:20.430Z,8.60
2023-05-14T04:09:47.286Z,7.30
2023-05-14T04:12:14.228Z,8.33
2023-05-14T04:14:41.229Z,8.47
2023-05-14T04:17:08.115Z,9.23
2023-05-14T04:19:34.957Z,9.70
2023-05-14T04:22:03.140Z,9.30
2023-05-14T04:24:29.961Z,10.10
2023-05-14T04:26:56.813Z,10.10
2023-05-14T04:29:23.664Z,10.27
2023-05-14T04:31:50.573Z,9.23
2023-05-14T04:34:17.546Z,10.30
2023-05-14T04:36:44.388Z,9.30
2023-05-14T04:39:12.677Z,10.40
2023-05-14T04:41:39.626Z,8.73
2023-05-14T04:44:07.238Z,11.73
2023-05-14T04:46:34.194Z,9.20
2023-05-14T04:49:01.216Z,8.47
2023-05-14T04:51:28.171Z,10.33
2023-05-14T04:53:55.054Z,9.93
2023-05-14T04:56:21.891Z,10.83
2023-05-14T04:58:48.763Z,10.40
2023-05-14T05:01:16.025Z,10.20
2023-05-14T05:03:43.027Z,12.20
2023-05-14T05:06:09.968Z,11.07
2023-05-14T05:08:36.980Z,11.30
2023-05-14T05:11:04.299Z,10.83
2023-05-14T05:13:32.389Z,10.70
2023-05-14T05:15:59.377Z,10.87
2023-05-14T05:18:26.345Z,10.00
2023-05-14T05:20:53.215Z,11.70
2023-05-14T05:23:20.369Z,11.73
2023-05-14T05:25:47.220Z,10.40
2023-05-14T05:28:14.066Z,10.83
2023-05-14T05:30:41.312Z,10.30
2023-05-14T05:33:08.266Z,10.07
2023-05-14T05:35:35.262Z,10.90
2023-05-14T05:38:02.205Z,8.33
2023-05-14T05:40:29.184Z,9.40
2023-05-14T05:42:56.114Z,8.63
2023-05-14T05:45:23.176Z,9.27
2023-05-14T05:47:50.192Z,7.50
2023-05-14T05:50:18.870Z,9.80
2023-05-14T05:52:46.782Z,9.07
2023-05-14T05:55:13.820Z,8.90
2023-05-14T05:57:40.749Z,11.47
2023-05-14T06:00:13.970Z,8.57
2023-05-14T06:02:44.270Z,7.73
2023-05-14T06:05:11.772Z,7.33
2023-05-14T06:07:39.041Z,8.13
2023-05-14T06:10:06.692Z,9.10
2023-05-14T06:12:33.638Z,9.27
2023-05-14T06:15:00.494Z,8.87
2023-05-14T06:17:27.464Z,7.67
2023-05-14T06:19:54.364Z,7.80
2023-05-14T06:22:21.236Z,8.93
2023-05-14T06:24:48.572Z,11.53
2023-05-14T06:27:15.424Z,6.87
2023-05-14T06:29:42.325Z,8.27
2023-05-14T06:32:09.514Z,9.40
2023-05-14T06:34:36.488Z,7.87
2023-05-14T06:37:04.344Z,7.80
2023-05-14T06:39:31.272Z,8.67
2023-05-14T06:41:58.134Z,8.60
2023-05-14T06:44:25.027Z,7.73
2023-05-14T06:46:52.320Z,8.57
2023-05-14T06:49:19.390Z,8.80
2023-05-14T06:51:46.354Z,6.77
2023-05-14T06:54:13.381Z,7.40
2023-05-14T06:56:40.512Z,6.50
2023-05-14T06:59:07.406Z,6.30
2023-05-14T07:01:34.284Z,6.20
2023-05-14T07:04:01.206Z,7.83
2023-05-14T07:06:28.196Z,9.80
2023-05-14T07:08:55.400Z,8.07
2023-05-14T07:11:22.491Z,7.07
2023-05-14T07:13:49.403Z,11.93
2023-05-14T07:16:16.260Z,7.50
2023-05-14T07:18:44.057Z,7.37
2023-05-14T07:21:11.591Z,7.57
2023-05-14T07:23:41.489Z,7.53
2023-05-14T07:26:08.556Z,11.40
2023-05-14T07:28:35.532Z,9.23
2023-05-14T07:31:09.079Z,7.63
2023-05-14T07:33:36.739Z,8.07
2023-05-14T07:36:03.719Z,7.30
2023-05-14T07:38:31.276Z,7.87
2023-05-14T07:40:58.574Z,9.20
2023-05-14T07:43:26.070Z,11.13
2023-05-14T07:45:53.090Z,7.67
2023-05-14T07:48:20.015Z,8.20
2023-05-14T07:50:49.160Z,8.20
2023-05-14T07:53:16.094Z,7.73
2023-05-14T07:55:44.552Z,8.87
2023-05-14T07:58:11.640Z,7.93
2023-05-14T08:00:38.603Z,10.70
2023-05-14T08:03:05.622Z,7.77
2023-05-14T08:05:33.199Z,8.33
2023-05-14T08:08:00.041Z,9.07
2023-05-14T08:10:27.318Z,9.77
2023-05-14T08:12:54.538Z,8.20
2023-05-14T08:15:21.638Z,9.83
2023-05-14T08:17:48.607Z,9.40
2023-05-14T08:20:15.879Z,8.00
2023-05-14T08:22:42.771Z,14.13
2023-05-14T08:25:10.049Z,8.13
2023-05-14T08:27:36.970Z,8.90
2023-05-14T08:30:04.641Z,10.03
2023-05-14T08:32:31.700Z,8.93
2023-05-14T08:34:58.578Z,9.17
2023-05-14T08:37:25.547Z,11.00
2023-05-14T08:39:52.415Z,10.77
2023-05-14T08:42:22.001Z,9.43
2023-05-14T08:44:52.837Z,10.10
2023-05-14T08:47:22.253Z,11.33
2023-05-14T08:49:58.283Z,10.83
2023-05-14T08:52:25.267Z,10.27
2023-05-14T08:54:54.170Z,8.47
2023-05-14T08:57:21.722Z,8.80
2023-05-14T08:59:48.739Z,9.30
2023-05-14T09:02:17.649Z,8.47
2023-05-14T09:04:45.220Z,8.70
2023-05-14T09:07:12.456Z,9.57
2023-05-14T09:09:39.572Z,10.10
2023-05-14T09:12:06.842Z,9.37
2023-05-14T09:14:37.316Z,9.60
2023-05-14T09:17:04.997Z,8.53
2023-05-14T09:19:31.928Z,9.60
2023-05-14T09:21:59.736Z,9.73
2023-05-14T09:24:31.039Z,8.90
2023-05-14T09:26:58.781Z,9.80
2023-05-14T09:29:26.500Z,9.17
2023-05-14T09:31:54.466Z,8.43
2023-05-14T09:34:40.753Z,8.00
2023-05-14T09:37:09.354Z,9.27
2023-05-14T09:39:37.832Z,7.67
2023-05-14T09:42:05.603Z,7.90
2023-05-14T09:44:32.755Z,7.67
2023-05-14T09:46:59.792Z,8.33
2023-05-14T09:49:26.851Z,8.90
2023-05-14T09:51:53.898Z,7.80
2023-05-14T09:54:20.851Z,11.20
2023-05-14T09:56:47.664Z,7.00
2023-05-14T09:59:14.611Z,5.27
2023-05-14T10:01:43.817Z,6.10
2023-05-14T10:04:12.362Z,7.27
2023-05-14T10:06:40.536Z,5.47
2023-05-14T10:09:12.446Z,7.00
2023-05-14T10:11:44.138Z,6.03
2023-05-14T10:14:24.903Z,6.03
2023-05-14T10:16:53.935Z,7.27
2023-05-14T10:19:24.467Z,8.73
2023-05-14T10:22:04.473Z,6.50
2023-05-14T10:24:32.674Z,7.03
2023-05-14T10:26:59.926Z,6.10
2023-05-14T10:29:35.434Z,5.80
2023-05-14T10:32:10.309Z,6.90
2023-05-14T10:34:44.271Z,7.20
2023-05-14T10:37:15.012Z,6.47
2023-05-14T10:39:49.984Z,6.90
2023-05-14T10:42:19.251Z,7.00
2023-05-14T10:44:58.728Z,6.30
2023-05-14T10:47:29.669Z,9.50
2023-05-14T10:49:58.876Z,5.80
2023-05-14T10:52:26.505Z,6.40
2023-05-14T10:54:59.136Z,6.10
2023-05-14T10:57:30.089Z,6.67
2023-05-14T10:59:59.831Z,7.13
2023-05-14T11:02:27.849Z,6.80
2023-05-14T11:04:59.009Z,8.10
2023-05-14T11:07:31.918Z,8.27
2023-05-14T11:10:22.811Z,9.20
2023-05-14T11:12:51.268Z,6.67
2023-05-14T11:15:20.758Z,7.80
2023-05-14T11:17:48.731Z,10.83
2023-05-14T11:20:16.951Z,7.43
2023-05-14T11:22:45.091Z,7.43
2023-05-14T11:25:15.914Z,6.90
2023-05-14T11:27:47.148Z,6.33
2023-05-14T11:30:14.392Z,8.50
2023-05-14T11:32:41.850Z,7.00
2023-05-14T11:35:08.981Z,7.00
2023-05-14T11:37:35.952Z,7.00
2023-05-14T11:40:02.846Z,6.60
2023-05-14T11:42:29.779Z,6.60
2023-05-14T11:44:56.896Z,7.00
2023-05-14T11:47:23.849Z,5.20
2023-05-14T11:49:50.748Z,6.03
2023-05-14T11:52:19.710Z,5.97
2023-05-14T11:54:46.851Z,7.80
2023-05-14T11:57:21.190Z,7.30
2023-05-14T11:59:49.712Z,6.60
2023-05-14T12:02:18.460Z,7.30
2023-05-14T12:04:52.412Z,6.90
2023-05-14T12:07:19.414Z,8.03
2023-05-14T12:09:51.565Z,6.80
2023-05-14T12:12:20.360Z,7.30
2023-05-14T12:14:48.325Z,6.33
2023-05-14T12:17:23.095Z,7.40
2023-05-14T12:19:52.539Z,6.97
2023-05-14T12:22:22.505Z,7.67
2023-05-14T12:25:00.257Z,7.93
2023-05-14T12:27:29.792Z,7.10
2023-05-14T12:30:20.522Z,7.17
2023-05-14T12:32:54.065Z,6.47
2023-05-14T12:35:22.840Z,7.67
2023-05-14T12:37:50.129Z,8.00
2023-05-14T12:40:17.102Z,7.50
2023-05-14T12:42:44.031Z,6.73
2023-05-14T12:45:11.651Z,6.87
2023-05-14T12:47:38.666Z,6.07
2023-05-14T12:50:06.337Z,5.67
2023-05-14T12:52:38.501Z,7.67
2023-05-14T12:55:07.722Z,6.43
2023-05-14T12:57:35.770Z,5.70
2023-05-14T13:00:06.984Z,5.97
2023-05-14T13:02:43.054Z,6.67
2023-05-14T13:05:11.585Z,6.50
2023-05-14T13:07:39.094Z,6.50
2023-05-14T13:10:06.972Z,5.60
2023-05-14T13:12:34.219Z,5.67
2023-05-14T13:15:01.161Z,5.40
2023-05-14T13:17:28.232Z,6.93
2023-05-14T13:19:55.231Z,5.77
2023-05-14T13:22:22.114Z,5.57
2023-05-14T13:24:48.911Z,5.20
2023-05-14T13:27:15.735Z,5.30
2023-05-14T13:29:42.638Z,5.40
2023-05-14T13:32:09.457Z,4.90
2023-05-14T13:34:36.475Z,5.73
2023-05-14T13:37:04.157Z,6.27
2023-05-14T13:39:31.086Z,5.57
2023-05-14T13:41:58.117Z,5.17
2023-05-14T13:44:25.151Z,5.97
2023-05-14T13:46:52.131Z,5.60
2023-05-14T13:49:19.365Z,5.73
2023-05-14T13:51:46.299Z,5.40
2023-05-14T13:54:13.204Z,5.10
2023-05-14T13:56:40.483Z,7.30
2023-05-14T13:59:07.527Z,6.87
2023-05-14T14:01:34.495Z,6.20
2023-05-14T14:04:01.394Z,6.50
2023-05-14T14:06:28.245Z,8.10
2023-05-14T14:08:55.143Z,10.90
2023-05-14T14:11:22.288Z,6.10
2023-05-14T14:13:49.272Z,7.27
2023-05-14T14:16:16.535Z,6.93
2023-05-14T14:18:43.621Z,6.00
2023-05-14T14:21:10.698Z,5.70
2023-05-14T14:23:37.716Z,6.13
2023-05-14T14:26:04.586Z,8.60
2023-05-14T14:28:31.608Z,6.37
2023-05-14T14:30:58.732Z,6.40
2023-05-14T14:33:25.965Z,6.60
2023-05-14T14:35:53.178Z,6.27
2023-05-14T14:38:20.319Z,8.50
2023-05-14T14:40:47.240Z,6.30
2023-05-14T14:43:14.106Z,6.77
2023-05-14T14:45:41.065Z,6.73
2023-05-14T14:48:28.159Z,7.10
2023-05-14T14:50:55.644Z,5.80
2023-05-14T14:53:23.825Z,7.00
2023-05-14T14:55:51.425Z,5.70
2023-05-14T14:58:19.774Z,5.83
2023-05-14T15:00:47.422Z,5.70
2023-05-14T15:03:15.449Z,5.30
2023-05-14T15:05:42.666Z,5.53
2023-05-14T15:08:10.111Z,5.90
2023-05-14T15:10:38.490Z,6.03
2023-05-14T15:13:06.959Z,6.07
2023-05-14T15:15:35.300Z,6.67
2023-05-14T15:18:03.370Z,6.40
2023-05-14T15:20:30.833Z,7.00
2023-05-14T15:22:57.769Z,6.03
2023-05-14T15:25:25.726Z,6.20
2023-05-14T15:27:52.817Z,6.47
2023-05-14T15:30:19.794Z,6.80
2023-05-14T15:32:46.991Z,5.40
2023-05-14T15:35:14.373Z,6.60
2023-05-14T15:37:43.313Z,8.43
2023-05-14T15:40:11.294Z,6.40
2023-05-14T15:42:40.260Z,6.87
2023-05-14T15:45:07.929Z,7.47
2023-05-14T15:47:35.116Z,6.37
2023-05-14T15:50:02.399Z,6.47
2023-05-14T15:52:29.352Z,5.87
2023-05-14T15:54:57.643Z,5.67
2023-05-14T15:57:24.635Z,6.30
2023-05-14T15:59:51.816Z,5.60
2023-05-14T16:02:18.775Z,6.10
2023-05-14T16:04:45.655Z,6.20
2023-05-14T16:07:13.551Z,6.37
2023-05-14T16:09:40.676Z,6.90
2023-05-14T16:12:08.282Z,6.00
2023-05-14T16:14:35.520Z,6.60
2023-05-14T16:17:02.559Z,6.37
2023-05-14T16:19:29.684Z,6.57
2023-05-14T16:21:56.623Z,8.10
2023-05-14T16:24:23.500Z,8.43
2023-05-14T16:26:50.641Z,6.67
2023-05-14T16:29:17.811Z,8.23
2023-05-14T16:31:44.684Z,9.30
2023-05-14T16:34:11.606Z,8.23
2023-05-14T16:36:38.557Z,9.07
2023-05-14T16:39:07.671Z,6.47
2023-05-14T16:41:36.181Z,6.53
2023-05-14T16:44:03.665Z,7.53
2023-05-14T16:46:31.428Z,6.27
2023-05-14T16:48:58.451Z,8.77
2023-05-14T16:51:25.333Z,5.73
2023-05-14T16:53:52.247Z,7.10
2023-05-14T16:56:19.442Z,5.70
2023-05-14T16:58:46.295Z,5.97
2023-05-14T17:01:13.178Z,7.07
2023-05-14T17:03:40.014Z,5.50
2023-05-14T17:06:07.426Z,6.20
2023-05-14T17:08:35.791Z,6.80
2023-05-14T17:11:05.987Z,9.63
2023-05-14T17:13:33.596Z,8.10
2023-05-14T17:16:01.061Z,5.67
2023-05-14T17:18:28.472Z,5.27
2023-05-14T17:20:55.505Z,6.13
2023-05-14T17:23:22.349Z,7.50
2023-05-14T17:25:49.311Z,5.63
2023-05-14T17:28:16.242Z,5.33
2023-05-14T17:30:43.165Z,5.70
2023-05-14T17:33:10.178Z,5.70
2023-05-14T17:35:37.511Z,4.93
2023-05-14T17:38:04.724Z,6.20
2023-05-14T17:40:31.697Z,5.37
2023-05-14T17:42:58.681Z,8.00
2023-05-14T17:45:26.898Z,9.13
2023-05-14T17:47:54.118Z,6.40
2023-05-14T17:50:21.139Z,4.70
2023-05-14T17:52:48.274Z,5.40
2023-05-14T17:55:15.387Z,4.70
2023-05-14T17:57:42.436Z,8.13
2023-05-14T18:00:09.848Z,6.50
2023-05-14T18:02:39.739Z,4.73
2023-05-14T18:05:06.950Z,6.20
2023-05-14T18:07:33.897Z,5.43
2023-05-14T18:10:00.851Z,5.33
2023-05-14T18:12:27.766Z,5.80
2023-05-14T18:14:54.832Z,8.53
2023-05-14T18:17:21.839Z,5.43
2023-05-14T18:19:48.743Z,4.97
2023-05-14T18:22:15.898Z,5.03
2023-05-14T18:24:44.465Z,8.13
2023-05-14T18:27:14.457Z,4.07
2023-05-14T18:29:42.908Z,5.00
2023-05-14T18:32:09.793Z,4.50
2023-05-14T18:34:36.819Z,6.50
2023-05-14T18:37:03.767Z,5.50
2023-05-14T18:39:30.815Z,6.20
2023-05-14T18:41:57.730Z,5.40
2023-05-14T18:44:24.581Z,5.30
2023-05-14T18:46:51.761Z,5.10
2023-05-14T18:49:18.629Z,6.20
2023-05-14T18:51:45.729Z,4.80
2023-05-14T18:54:12.647Z,7.00
2023-05-14T18:56:45.499Z,10.13
2023-05-14T18:59:14.351Z,5.23
2023-05-14T19:01:41.296Z,4.70
2023-05-14T19:04:08.493Z,4.90
2023-05-14T19:06:36.403Z,5.50
2023-05-14T19:09:25.041Z,5.53
2023-05-14T19:11:53.742Z,6.10
2023-05-14T19:14:22.793Z,7.00
2023-05-14T19:16:50.255Z,6.87
2023-05-14T19:19:17.299Z,6.97
2023-05-14T19:21:44.297Z,8.03
2023-05-14T19:24:11.342Z,6.23
2023-05-14T19:26:38.464Z,6.67
2023-05-14T19:29:05.416Z,10.60
2023-05-14T19:31:32.551Z,7.50
2023-05-14T19:33:59.449Z,8.40
2023-05-14T19:36:26.504Z,10.87
2023-05-14T19:38:53.446Z,12.63
2023-05-14T19:41:21.855Z,8.07
2023-05-14T19:43:48.813Z,7.03
2023-05-14T19:46:15.932Z,8.17
2023-05-14T19:48:42.944Z,7.60
2023-05-14T19:51:09.968Z,6.90
2023-05-14T19:53:37.054Z,10.93
2023-05-14T19:56:04.125Z,6.53
2023-05-14T19:58:31.159Z,7.63
2023-05-14T20:00:58.979Z,7.40
2023-05-14T20:03:26.351Z,7.83
2023-05-14T20:05:54.322Z,8.50
2023-05-14T20:08:21.757Z,9.90
2023-05-14T20:10:48.913Z,9.20
2023-05-14T20:13:15.910Z,9.10
2023-05-14T20:15:45.696Z,8.83
2023-05-14T20:18:13.283Z,9.47
2023-05-14T20:20:40.248Z,8.97
2023-05-14T20:23:07.192Z,11.10
2023-05-14T20:25:34.759Z,13.47
2023-05-14T20:28:01.902Z,8.27
2023-05-14T20:30:28.894Z,9.03
2023-05-14T20:32:56.115Z,8.90
2023-05-14T20:35:23.564Z,7.37
2023-05-14T20:37:50.880Z,7.50
2023-05-14T20:40:17.912Z,7.73
2023-05-14T20:42:45.227Z,8.07
2023-05-14T20:45:12.127Z,7.33
2023-05-14T20:47:40.356Z,7.50
2023-05-14T20:50:07.914Z,6.50
2023-05-14T20:52:34.899Z,6.23
2023-05-14T20:55:02.502Z,6.90
2023-05-14T20:57:29.605Z,5.93
2023-05-14T20:59:57.067Z,6.37
2023-05-14T21:02:24.128Z,5.93
2023-05-14T21:04:51.488Z,6.17
2023-05-14T21:07:18.566Z,6.13
2023-05-14T21:09:50.998Z,7.30
2023-05-14T21:12:19.168Z,6.60
2023-05-14T21:14:46.475Z,7.50
2023-05-14T21:17:13.481Z,6.53
2023-05-14T21:19:40.393Z,6.30
2023-05-14T21:22:07.610Z,7.10
2023-05-14T21:24:34.564Z,6.40
2023-05-14T21:27:01.552Z,7.50
2023-05-14T21:29:28.595Z,6.87
2023-05-14T21:31:55.558Z,6.87
2023-05-14T21:34:22.609Z,6.90
2023-05-14T21:36:49.585Z,7.63
2023-05-14T21:39:16.532Z,8.30
2023-05-14T21:41:43.571Z,11.57
2023-05-14T21:44:10.528Z,11.00
2023-05-14T21:46:37.542Z,9.03
2023-05-14T21:49:04.668Z,11.43
2023-05-14T21:51:32.360Z,10.30
2023-05-14T21:53:59.471Z,8.73
2023-05-14T21:56:26.638Z,10.60
2023-05-14T21:58:55.751Z,9.30
2023-05-14T22:01:22.899Z,9.57
2023-05-14T22:03:49.941Z,10.17
2023-05-14T22:06:17.020Z,9.83
2023-05-14T22:08:43.942Z,7.50
2023-05-14T22:11:10.849Z,7.57
2023-05-14T22:13:41.116Z,9.27
2023-05-14T22:16:13.223Z,8.70
2023-05-14T22:18:41.466Z,8.50
2023-05-14T22:21:08.460Z,8.33
2023-05-14T22:23:35.461Z,7.80
2023-05-14T22:26:02.309Z,7.07
2023-05-14T22:28:29.180Z,12.90
2023-05-14T22:30:56.797Z,10.87
2023-05-14T22:33:23.733Z,7.20
2023-05-14T22:35:50.989Z,10.70
2023-05-14T22:38:18.008Z,7.60
2023-05-14T22:40:44.916Z,7.80
2023-05-14T22:43:11.906Z,10.17
2023-05-14T22:45:38.901Z,6.83
2023-05-14T22:48:06.125Z,7.20
2023-05-14T22:50:33.182Z,7.30
2023-05-14T22:53:00.156Z,7.03
2023-05-14T22:55:27.444Z,7.80
2023-05-14T22:57:54.568Z,8.33
2023-05-14T23:00:21.661Z,8.93
2023-05-14T23:02:48.560Z,6.97
2023-05-14T23:05:15.756Z,7.33
2023-05-14T23:07:42.918Z,5.90
2023-05-14T23:10:10.448Z,6.80
2023-05-14T23:12:37.407Z,6.33
2023-05-14T23:15:04.680Z,7.57
2023-05-14T23:17:31.643Z,7.37
2023-05-14T23:19:58.577Z,8.17
2023-05-14T23:22:25.536Z,6.23
2023-05-14T23:24:52.390Z,7.30
2023-05-14T23:27:19.424Z,6.20
2023-05-14T23:29:46.298Z,7.03
2023-05-14T23:32:13.262Z,6.13
2023-05-14T23:34:40.150Z,6.63
2023-05-14T23:37:07.140Z,7.80
2023-05-14T23:39:34.031Z,6.67
2023-05-14T23:42:01.072Z,6.80
2023-05-14T23:44:28.000Z,5.90
2023-05-14T23:46:54.997Z,7.80
2023-05-14T23:49:22.306Z,7.03
2023-05-14T23:51:49.126Z,6.30
2023-05-14T23:54:17.523Z,8.60
2023-05-14T23:56:44.662Z,6.00
2023-05-14T23:59:12.074Z,7.47
